createdAt,value
2023-05-08T00:01:19.533Z,102158.47
2023-05-08T00:03:46.276Z,102164.06
2023-05-08T00:06:12.894Z,102162.34
2023-05-08T00:08:39.540Z,102165.16
2023-05-08T00:11:06.079Z,102166.28
2023-05-08T00:13:32.508Z,102167.25
2023-05-08T00:15:59.094Z,102154.78
2023-05-08T00:18:26.451Z,102152.06
2023-05-08T00:20:53.024Z,102152.34
2023-05-08T00:23:21.932Z,102146.34
2023-05-08T00:25:48.277Z,102152.69
2023-05-08T00:28:15.114Z,102145.66
2023-05-08T00:30:42.616Z,102144.84
2023-05-08T00:33:09.535Z,102137.81
2023-05-08T00:35:36.328Z,102145.97
2023-05-08T00:38:03.151Z,102141.72
2023-05-08T00:40:31.074Z,102145.44
2023-05-08T00:42:57.498Z,102146.50
2023-05-08T00:45:24.465Z,102151.91
2023-05-08T00:47:51.275Z,102151.13
2023-05-08T00:50:18.149Z,102148.72
2023-05-08T00:52:44.712Z,102144.25
2023-05-08T00:55:11.233Z,102138.06
2023-05-08T00:57:38.626Z,102141.81
2023-05-08T01:00:05.872Z,102142.69
2023-05-08T01:02:32.794Z,102148.19
2023-05-08T01:05:00.253Z,102142.09
2023-05-08T01:07:27.889Z,102144.09
2023-05-08T01:09:54.632Z,102147.78
2023-05-08T01:12:47.971Z,102143.22
2023-05-08T01:15:27.200Z,102145.91
2023-05-08T01:18:11.360Z,102151.31
2023-05-08T01:21:01.096Z,102147.59
2023-05-08T01:23:48.825Z,102146.81
2023-05-08T01:26:47.790Z,102147.84
2023-05-08T01:29:58.918Z,102138.09
2023-05-08T01:32:29.857Z,102150.81
2023-05-08T01:35:07.895Z,102146.38
2023-05-08T01:38:09.568Z,102151.97
2023-05-08T01:40:56.707Z,102155.78
2023-05-08T01:43:30.772Z,102155.97
2023-05-08T01:45:59.403Z,102154.47
2023-05-08T01:48:35.154Z,102152.88
2023-05-08T01:51:08.361Z,102153.94
2023-05-08T01:53:40.822Z,102149.53
2023-05-08T01:56:15.545Z,102156.84
2023-05-08T01:58:43.026Z,102157.00
2023-05-08T02:01:12.506Z,102157.16
2023-05-08T02:03:41.710Z,102152.81
2023-05-08T02:06:10.193Z,102165.44
2023-05-08T02:08:37.641Z,102166.50
2023-05-08T02:11:06.625Z,102169.38
2023-05-08T02:13:35.825Z,102163.72
2023-05-08T02:16:03.244Z,102162.66
2023-05-08T02:18:32.065Z,102162.41
2023-05-08T02:21:02.199Z,102160.25
2023-05-08T02:23:29.912Z,102171.13
2023-05-08T02:25:57.333Z,102163.69
2023-05-08T02:28:24.932Z,102174.59
2023-05-08T02:30:52.530Z,102172.88
2023-05-08T02:33:20.628Z,102176.53
2023-05-08T02:35:50.539Z,102178.44
2023-05-08T02:38:20.702Z,102174.88
2023-05-08T02:40:55.489Z,102181.06
2023-05-08T02:43:22.436Z,102176.53
2023-05-08T02:45:56.271Z,102181.84
2023-05-08T02:48:28.868Z,102178.19
2023-05-08T02:51:03.075Z,102175.38
2023-05-08T02:53:50.491Z,102178.88
2023-05-08T02:56:32.363Z,102177.16
2023-05-08T02:59:13.276Z,102169.91
2023-05-08T03:01:49.489Z,102171.81
2023-05-08T03:04:31.932Z,102163.78
2023-05-08T03:07:00.111Z,102166.66
2023-05-08T03:09:32.034Z,102160.47
2023-05-08T03:12:03.717Z,102160.66
2023-05-08T03:14:35.112Z,102153.69
2023-05-08T03:17:06.325Z,102158.22
2023-05-08T03:19:37.593Z,102157.59
2023-05-08T03:22:07.847Z,102152.19
2023-05-08T03:24:36.757Z,102152.28
2023-05-08T03:27:05.929Z,102150.53
2023-05-08T03:29:33.488Z,102149.69
2023-05-08T03:32:02.292Z,102149.84
2023-05-08T03:34:30.329Z,102150.16
2023-05-08T03:36:57.132Z,102157.47
2023-05-08T03:39:26.209Z,102163.16
2023-05-08T03:41:53.111Z,102153.41
2023-05-08T03:44:20.144Z,102153.44
2023-05-08T03:46:47.880Z,102148.13
2023-05-08T03:49:14.867Z,102140.91
2023-05-08T03:51:42.902Z,102142.72
2023-05-08T03:54:09.369Z,102146.50
2023-05-08T03:56:35.984Z,102140.28
2023-05-08T03:59:26.823Z,102147.59
2023-05-08T04:02:09.121Z,102144.19
2023-05-08T04:04:43.989Z,102148.03
2023-05-08T04:07:24.803Z,102148.22
2023-05-08T04:10:06.280Z,102151.03
2023-05-08T04:13:06.920Z,102153.75
2023-05-08T04:15:39.288Z,102155.59
2023-05-08T04:18:14.769Z,102156.34
2023-05-08T04:20:42.938Z,102160.66
2023-05-08T04:23:13.960Z,102162.25
2023-05-08T04:25:42.626Z,102159.38
2023-05-08T04:28:11.138Z,102166.41
2023-05-08T04:30:40.152Z,102165.22
2023-05-08T04:33:08.064Z,102159.56
2023-05-08T04:35:36.022Z,102160.97
2023-05-08T04:38:03.013Z,102160.66
2023-05-08T04:40:29.560Z,102163.09
2023-05-08T04:42:56.484Z,102172.66
2023-05-08T04:45:23.372Z,102171.28
2023-05-08T04:47:50.021Z,102171.75
2023-05-08T04:50:16.784Z,102172.88
2023-05-08T04:52:43.199Z,102166.84
2023-05-08T04:55:10.629Z,102180.03
2023-05-08T04:57:38.759Z,102181.75
2023-05-08T05:00:06.360Z,102182.66
2023-05-08T05:02:36.822Z,102182.56
2023-05-08T05:05:05.170Z,102185.59
2023-05-08T05:07:31.750Z,102189.97
2023-05-08T05:10:00.039Z,102183.56
2023-05-08T05:12:27.093Z,102186.69
2023-05-08T05:14:53.767Z,102191.69
2023-05-08T05:17:20.565Z,102199.09
2023-05-08T05:19:47.182Z,102185.59
2023-05-08T05:22:13.733Z,102198.28
2023-05-08T05:24:41.445Z,102198.66
2023-05-08T05:27:07.904Z,102193.72
2023-05-08T05:29:34.758Z,102201.75
2023-05-08T05:32:07.080Z,102197.03
2023-05-08T05:34:33.706Z,102201.38
2023-05-08T05:37:00.235Z,102197.81
2023-05-08T05:39:26.851Z,102197.00
2023-05-08T05:41:53.476Z,102204.78
2023-05-08T05:44:20.045Z,102205.66
2023-05-08T05:46:48.493Z,102207.03
2023-05-08T05:49:15.153Z,102200.25
2023-05-08T05:51:41.703Z,102206.06
2023-05-08T05:54:08.535Z,102205.03
2023-05-08T05:56:35.078Z,102207.78
2023-05-08T05:59:01.801Z,102203.84
2023-05-08T06:01:29.121Z,102206.34
2023-05-08T06:03:57.583Z,102212.69
2023-05-08T06:06:24.945Z,102211.00
2023-05-08T06:08:51.391Z,102213.13
2023-05-08T06:11:17.845Z,102193.38
2023-05-08T06:13:44.507Z,102201.94
2023-05-08T06:16:12.139Z,102190.84
2023-05-08T06:18:38.614Z,102206.13
2023-05-08T06:21:05.281Z,102196.66
2023-05-08T06:23:31.802Z,102204.06
2023-05-08T06:25:58.535Z,102199.53
2023-05-08T06:28:26.006Z,102199.72
2023-05-08T06:30:52.814Z,102198.25
2023-05-08T06:33:19.480Z,102198.28
2023-05-08T06:35:47.687Z,102212.75
2023-05-08T06:38:14.726Z,102211.88
2023-05-08T06:40:43.116Z,102216.13
2023-05-08T06:43:09.905Z,102210.44
2023-05-08T06:45:36.461Z,102216.75
2023-05-08T06:48:03.092Z,102214.41
2023-05-08T06:50:29.710Z,102207.34
2023-05-08T06:52:57.814Z,102205.06
2023-05-08T06:55:24.279Z,102198.03
2023-05-08T06:57:50.854Z,102199.56
2023-05-08T07:00:20.521Z,102200.16
2023-05-08T07:02:46.987Z,102203.13
2023-05-08T07:05:13.697Z,102206.47
2023-05-08T07:07:42.552Z,102212.53
2023-05-08T07:10:09.457Z,102215.53
2023-05-08T07:12:35.938Z,102213.66
2023-05-08T07:15:17.793Z,102217.94
2023-05-08T07:17:49.311Z,102210.09
2023-05-08T07:20:16.702Z,102222.44
2023-05-08T07:22:43.168Z,102220.31
2023-05-08T07:25:10.133Z,102214.59
2023-05-08T07:27:36.798Z,102219.97
2023-05-08T07:30:04.267Z,102214.44
2023-05-08T07:32:33.838Z,102219.13
2023-05-08T07:35:00.436Z,102223.72
2023-05-08T07:37:26.882Z,102218.13
2023-05-08T07:39:53.495Z,102217.47
2023-05-08T07:42:21.194Z,102215.06
2023-05-08T07:44:54.329Z,102203.66
2023-05-08T07:47:21.641Z,102213.00
2023-05-08T07:49:48.144Z,102210.16
2023-05-08T07:52:14.636Z,102211.91
2023-05-08T07:54:41.041Z,102208.03
2023-05-08T07:57:08.939Z,102212.41
2023-05-08T07:59:35.438Z,102204.84
2023-05-08T08:02:01.930Z,102204.72
2023-05-08T08:04:28.512Z,102213.28
2023-05-08T08:06:58.005Z,102215.00
2023-05-08T08:09:24.576Z,102211.69
2023-05-08T08:11:51.268Z,102206.13
2023-05-08T08:14:17.871Z,102210.88
2023-05-08T08:16:44.514Z,102213.66
2023-05-08T08:19:11.064Z,102222.53
2023-05-08T08:21:43.547Z,102222.78
2023-05-08T08:24:10.410Z,102226.63
2023-05-08T08:26:36.963Z,102221.34
2023-05-08T08:29:03.870Z,102215.97
2023-05-08T08:31:30.438Z,102206.13
2023-05-08T08:33:57.448Z,102208.91
2023-05-08T08:36:23.939Z,102213.53
2023-05-08T08:38:50.440Z,102205.00
2023-05-08T08:41:16.958Z,102211.00
2023-05-08T08:43:43.542Z,102207.13
2023-05-08T08:46:14.652Z,102198.16
2023-05-08T08:48:45.520Z,102200.31
2023-05-08T08:51:25.735Z,102199.69
2023-05-08T08:53:59.944Z,102198.13
2023-05-08T08:56:27.561Z,102200.13
2023-05-08T08:58:57.123Z,102203.47
2023-05-08T09:01:24.760Z,102203.34
2023-05-08T09:03:52.710Z,102208.81
2023-05-08T09:06:19.807Z,102208.56
2023-05-08T09:08:47.308Z,102201.38
2023-05-08T09:11:13.847Z,102204.28
2023-05-08T09:13:41.209Z,102196.47
2023-05-08T09:16:07.769Z,102199.47
2023-05-08T09:18:34.241Z,102206.41
2023-05-08T09:21:01.788Z,102190.22
2023-05-08T09:23:28.621Z,102195.16
2023-05-08T09:25:55.113Z,102210.34
2023-05-08T09:28:24.014Z,102200.66
2023-05-08T09:30:58.794Z,102205.69
2023-05-08T09:33:29.604Z,102207.00
2023-05-08T09:35:56.787Z,102202.47
2023-05-08T09:38:43.527Z,102198.13
2023-05-08T09:41:15.276Z,102198.31
2023-05-08T09:43:44.003Z,102189.38
2023-05-08T09:46:21.089Z,102198.06
2023-05-08T09:48:48.380Z,102196.75
2023-05-08T09:51:14.912Z,102187.03
2023-05-08T09:53:41.429Z,102193.44
2023-05-08T09:56:07.967Z,102192.81
2023-05-08T09:58:39.521Z,102192.00
2023-05-08T10:01:07.431Z,102194.22
2023-05-08T10:03:48.032Z,102194.78
2023-05-08T10:06:15.270Z,102207.09
2023-05-08T10:08:41.978Z,102201.81
2023-05-08T10:11:19.322Z,102195.72
2023-05-08T10:13:46.708Z,102198.88
2023-05-08T10:16:18.448Z,102200.94
2023-05-08T10:18:49.685Z,102207.44
2023-05-08T10:21:17.734Z,102209.03
2023-05-08T10:23:49.512Z,102203.66
2023-05-08T10:26:27.335Z,102199.53
2023-05-08T10:28:57.896Z,102197.31
2023-05-08T10:31:26.864Z,102205.28
2023-05-08T10:33:56.663Z,102202.84
2023-05-08T10:36:23.883Z,102199.66
2023-05-08T10:38:51.698Z,102202.94
2023-05-08T10:41:20.004Z,102203.97
2023-05-08T10:43:46.739Z,102208.03
2023-05-08T10:46:29.244Z,102204.28
2023-05-08T10:49:14.829Z,102198.88
2023-05-08T10:51:53.536Z,102198.44
2023-05-08T10:54:32.426Z,102198.03
2023-05-08T10:57:11.729Z,102196.69
2023-05-08T10:59:38.682Z,102197.97
2023-05-08T11:02:07.226Z,102188.38
2023-05-08T11:04:38.364Z,102186.44
2023-05-08T11:07:05.394Z,102193.75
2023-05-08T11:09:40.859Z,102191.81
2023-05-08T11:12:16.546Z,102190.19
2023-05-08T11:14:53.280Z,102185.44
2023-05-08T11:17:24.437Z,102187.16
2023-05-08T11:20:01.690Z,102178.75
2023-05-08T11:22:30.578Z,102183.22
2023-05-08T11:25:10.753Z,102185.63
2023-05-08T11:27:49.800Z,102179.59
2023-05-08T11:30:25.673Z,102178.38
2023-05-08T11:33:07.079Z,102173.97
2023-05-08T11:35:42.699Z,102171.22
2023-05-08T11:38:20.404Z,102167.13
2023-05-08T11:40:57.548Z,102164.19
2023-05-08T11:43:34.314Z,102159.97
2023-05-08T11:46:04.753Z,102158.28
2023-05-08T11:48:32.819Z,102160.88
2023-05-08T11:51:00.077Z,102160.28
2023-05-08T11:53:27.289Z,102152.91
2023-05-08T11:55:54.162Z,102153.34
2023-05-08T11:58:23.538Z,102152.31
2023-05-08T12:01:25.249Z,102156.59
2023-05-08T12:04:11.508Z,102154.41
2023-05-08T12:06:41.332Z,102159.41
2023-05-08T12:09:13.086Z,102162.63
2023-05-08T12:11:43.750Z,102158.13
2023-05-08T12:14:11.961Z,102147.50
2023-05-08T12:16:40.272Z,102148.50
2023-05-08T12:19:13.083Z,102151.00
2023-05-08T12:21:49.908Z,102143.34
2023-05-08T12:24:23.729Z,102144.59
2023-05-08T12:26:58.631Z,102140.56
2023-05-08T12:29:26.698Z,102144.88
2023-05-08T12:31:53.575Z,102145.81
2023-05-08T12:34:20.731Z,102151.16
2023-05-08T12:36:47.346Z,102143.78
2023-05-08T12:39:16.114Z,102134.94
2023-05-08T12:41:47.429Z,102134.50
2023-05-08T12:44:24.273Z,102139.34
2023-05-08T12:46:56.273Z,102136.53
2023-05-08T12:49:31.257Z,102133.16
2023-05-08T12:52:08.148Z,102120.56
2023-05-08T12:54:41.169Z,102110.13
2023-05-08T12:57:18.326Z,102107.56
2023-05-08T12:59:46.162Z,102109.16
2023-05-08T13:02:23.749Z,102107.06
2023-05-08T13:04:55.940Z,102102.94
2023-05-08T13:07:23.462Z,102097.22
2023-05-08T13:10:03.604Z,102108.16
2023-05-08T13:12:31.552Z,102104.16
2023-05-08T13:14:58.029Z,102105.50
2023-05-08T13:17:24.450Z,102099.50
2023-05-08T13:19:50.934Z,102097.81
2023-05-08T13:22:17.439Z,102096.97
2023-05-08T13:24:43.940Z,102097.81
2023-05-08T13:27:10.487Z,102095.69
2023-05-08T13:29:37.058Z,102095.13
2023-05-08T13:32:07.327Z,102099.50
2023-05-08T13:34:34.841Z,102090.50
2023-05-08T13:37:01.478Z,102088.25
2023-05-08T13:39:32.703Z,102085.44
2023-05-08T13:41:59.318Z,102080.84
2023-05-08T13:44:25.852Z,102082.13
2023-05-08T13:46:52.449Z,102082.75
2023-05-08T13:49:19.844Z,102084.31
2023-05-08T13:51:49.226Z,102083.44
2023-05-08T13:54:20.863Z,102080.94
2023-05-08T13:56:48.556Z,102077.78
2023-05-08T13:59:15.275Z,102073.81
2023-05-08T14:01:41.993Z,102078.38
2023-05-08T14:04:08.687Z,102075.78
2023-05-08T14:06:35.546Z,102071.63
2023-05-08T14:09:02.320Z,102067.34
2023-05-08T14:11:29.558Z,102066.78
2023-05-08T14:13:56.215Z,102068.34
2023-05-08T14:16:22.990Z,102056.94
2023-05-08T14:18:49.573Z,102063.72
2023-05-08T14:21:16.203Z,102064.47
2023-05-08T14:23:43.876Z,102060.84
2023-05-08T14:26:10.849Z,102061.34
2023-05-08T14:28:40.668Z,102059.66
2023-05-08T14:31:09.573Z,102051.47
2023-05-08T14:33:36.196Z,102066.34
2023-05-08T14:36:02.903Z,102054.69
2023-05-08T14:38:29.641Z,102057.53
2023-05-08T14:40:56.572Z,102053.72
2023-05-08T14:43:23.496Z,102049.28
2023-05-08T14:45:52.730Z,102053.63
2023-05-08T14:48:19.266Z,102048.75
2023-05-08T14:50:45.738Z,102054.09
2023-05-08T14:53:12.234Z,102048.59
2023-05-08T14:55:39.226Z,102047.94
2023-05-08T14:58:06.265Z,102050.41
2023-05-08T15:00:32.934Z,102048.19
2023-05-08T15:02:59.757Z,102042.56
2023-05-08T15:05:26.911Z,102044.63
2023-05-08T15:07:54.143Z,102047.97
2023-05-08T15:10:20.868Z,102047.50
2023-05-08T15:12:47.504Z,102047.78
2023-05-08T15:15:14.518Z,102037.31
2023-05-08T15:17:41.609Z,102041.03
2023-05-08T15:20:09.638Z,102044.22
2023-05-08T15:22:36.959Z,102039.91
2023-05-08T15:25:03.985Z,102043.53
2023-05-08T15:27:52.790Z,102047.69
2023-05-08T15:30:20.254Z,102043.41
2023-05-08T15:32:46.977Z,102036.34
2023-05-08T15:35:21.361Z,102037.88
2023-05-08T15:37:47.825Z,102027.97
2023-05-08T15:40:14.396Z,102030.66
2023-05-08T15:42:40.959Z,102027.53
2023-05-08T15:45:08.108Z,102022.97
2023-05-08T15:47:34.854Z,102028.19
2023-05-08T15:50:01.472Z,102029.09
2023-05-08T15:52:30.233Z,102035.00
2023-05-08T15:54:56.681Z,102029.00
2023-05-08T15:57:23.094Z,102025.50
2023-05-08T15:59:49.569Z,102025.81
2023-05-08T16:02:16.001Z,102036.16
2023-05-08T16:04:42.552Z,102035.16
2023-05-08T16:07:09.049Z,102039.38
2023-05-08T16:09:35.498Z,102032.19
2023-05-08T16:12:01.996Z,102039.22
2023-05-08T16:14:28.436Z,102032.16
2023-05-08T16:16:54.846Z,102036.75
2023-05-08T16:19:21.267Z,102034.63
2023-05-08T16:21:47.840Z,102034.06
2023-05-08T16:24:14.685Z,102039.28
2023-05-08T16:26:41.128Z,102031.50
2023-05-08T16:29:07.618Z,102037.28
2023-05-08T16:31:34.134Z,102031.38
2023-05-08T16:34:00.678Z,102040.69
2023-05-08T16:36:27.566Z,102038.00
2023-05-08T16:38:54.108Z,102038.94
2023-05-08T16:41:21.163Z,102043.84
2023-05-08T16:43:47.604Z,102034.63
2023-05-08T16:46:14.273Z,102035.53
2023-05-08T16:48:42.226Z,102031.38
2023-05-08T16:51:08.787Z,102030.66
2023-05-08T16:53:35.337Z,102026.16
2023-05-08T16:56:01.868Z,102024.22
2023-05-08T16:58:28.493Z,102020.66
2023-05-08T17:00:55.071Z,102018.06
2023-05-08T17:03:22.807Z,102016.25
2023-05-08T17:05:53.942Z,102011.19
2023-05-08T17:08:20.451Z,102013.97
2023-05-08T17:10:47.002Z,102006.75
2023-05-08T17:13:23.760Z,102009.34
2023-05-08T17:15:50.591Z,102010.00
2023-05-08T17:18:17.224Z,102014.91
2023-05-08T17:20:45.070Z,102012.38
2023-05-08T17:23:12.250Z,102018.75
2023-05-08T17:25:38.937Z,102025.47
2023-05-08T17:28:05.577Z,102021.00
2023-05-08T17:30:36.976Z,102025.91
2023-05-08T17:33:07.171Z,102024.06
2023-05-08T17:35:34.244Z,102032.44
2023-05-08T17:38:00.986Z,102037.22
2023-05-08T17:40:28.875Z,102040.09
2023-05-08T17:42:55.770Z,102034.19
2023-05-08T17:45:22.350Z,102037.31
2023-05-08T17:47:49.025Z,102032.44
2023-05-08T17:50:15.808Z,102024.50
2023-05-08T17:52:42.500Z,102024.31
2023-05-08T17:55:09.741Z,102023.88
2023-05-08T17:57:36.465Z,102020.41
2023-05-08T18:00:04.417Z,102019.69
2023-05-08T18:02:35.103Z,102024.31
2023-05-08T18:05:02.014Z,102030.78
2023-05-08T18:07:28.543Z,102026.16
2023-05-08T18:09:55.028Z,102025.97
2023-05-08T18:12:21.712Z,102043.25
2023-05-08T18:14:48.645Z,102045.41
2023-05-08T18:17:24.173Z,102050.44
2023-05-08T18:19:50.885Z,102040.00
2023-05-08T18:22:17.613Z,102036.94
2023-05-08T18:24:45.687Z,102033.31
2023-05-08T18:27:12.251Z,102037.56
2023-05-08T18:29:38.898Z,102039.44
2023-05-08T18:32:30.291Z,102044.03
2023-05-08T18:34:57.200Z,102047.78
2023-05-08T18:37:26.688Z,102042.69
2023-05-08T18:39:55.663Z,102044.50
2023-05-08T18:42:25.604Z,102037.78
2023-05-08T18:44:52.286Z,102036.47
2023-05-08T18:47:21.131Z,102048.25
2023-05-08T18:49:57.862Z,102036.63
2023-05-08T18:52:24.845Z,102032.69
2023-05-08T18:54:52.690Z,102029.75
2023-05-08T18:57:19.266Z,102018.59
2023-05-08T19:02:39.059Z,102008.88
2023-05-08T19:05:06.153Z,102013.75
2023-05-08T19:07:36.516Z,102010.56
2023-05-08T19:10:04.256Z,102016.53
2023-05-08T19:12:34.034Z,102021.47
2023-05-08T19:15:00.509Z,102021.25
2023-05-08T19:17:31.264Z,102023.78
2023-05-08T19:19:57.730Z,102027.28
2023-05-08T19:22:26.924Z,102025.34
2023-05-08T19:24:58.682Z,102027.81
2023-05-08T19:27:25.798Z,102036.78
2023-05-08T19:29:52.370Z,102027.63
2023-05-08T19:32:31.463Z,102023.53
2023-05-08T19:34:57.895Z,102029.22
2023-05-08T19:37:24.751Z,102033.31
2023-05-08T19:39:51.307Z,102034.59
2023-05-08T19:42:17.955Z,102033.34
2023-05-08T19:44:44.445Z,102029.25
2023-05-08T19:47:11.059Z,102031.47
2023-05-08T19:49:37.523Z,102032.81
2023-05-08T19:52:04.076Z,102028.34
2023-05-08T19:54:30.874Z,102032.81
2023-05-08T19:56:57.642Z,102034.16
2023-05-08T19:59:24.148Z,102041.81
2023-05-08T20:01:50.837Z,102038.84
2023-05-08T20:04:17.556Z,102046.50
2023-05-08T20:06:43.986Z,102048.72
2023-05-08T20:09:10.475Z,102042.63
2023-05-08T20:11:36.951Z,102043.00
2023-05-08T20:14:03.506Z,102036.31
2023-05-08T20:16:30.067Z,102039.16
2023-05-08T20:18:56.635Z,102046.44
2023-05-08T20:21:23.162Z,102046.19
2023-05-08T20:23:49.577Z,102045.84
2023-05-08T20:26:16.048Z,102049.09
2023-05-08T20:28:42.441Z,102047.59
2023-05-08T20:31:09.082Z,102048.97
2023-05-08T20:33:35.517Z,102050.75
2023-05-08T20:36:02.062Z,102051.56
2023-05-08T20:38:28.551Z,102053.47
2023-05-08T20:40:59.312Z,102061.13
2023-05-08T20:43:27.503Z,102059.03
2023-05-08T20:45:54.062Z,102062.50
2023-05-08T20:48:20.498Z,102056.44
2023-05-08T20:50:49.911Z,102066.34
2023-05-08T20:53:16.312Z,102062.72
2023-05-08T20:55:42.768Z,102053.59
2023-05-08T20:58:09.274Z,102054.69
2023-05-08T21:00:36.125Z,102056.69
2023-05-08T21:03:03.163Z,102050.81
2023-05-08T21:05:29.779Z,102046.13
2023-05-08T21:07:59.908Z,102045.16
2023-05-08T21:10:28.681Z,102038.09
2023-05-08T21:12:55.188Z,102039.09
2023-05-08T21:15:21.721Z,102022.38
2023-05-08T21:17:48.400Z,102017.13
2023-05-08T21:20:15.406Z,102012.19
2023-05-08T21:22:42.239Z,102013.53
2023-05-08T21:25:17.544Z,102008.44
2023-05-08T21:27:44.212Z,102012.38
2023-05-08T21:30:15.214Z,102012.63
2023-05-08T21:32:46.731Z,102018.31
2023-05-08T21:35:13.614Z,102015.72
2023-05-08T21:37:43.264Z,102016.72
2023-05-08T21:40:10.250Z,102013.09
2023-05-08T21:42:36.638Z,102008.63
2023-05-08T21:45:03.263Z,102001.47
2023-05-08T21:47:29.837Z,102002.22
2023-05-08T21:49:57.183Z,102009.28
2023-05-08T21:52:25.523Z,102001.22
2023-05-08T21:54:52.796Z,101990.47
2023-05-08T21:57:19.311Z,101982.28
2023-05-08T21:59:45.791Z,101983.16
2023-05-08T22:02:12.860Z,101990.34
2023-05-08T22:04:39.389Z,101979.44
2023-05-08T22:07:05.910Z,101982.41
2023-05-08T22:09:32.426Z,101988.88
2023-05-08T22:11:58.907Z,101982.66
2023-05-08T22:14:25.436Z,101982.66
2023-05-08T22:16:52.585Z,101976.47
2023-05-08T22:19:19.149Z,101976.22
2023-05-08T22:21:45.635Z,101968.81
2023-05-08T22:24:12.129Z,101963.38
2023-05-08T22:26:38.596Z,101958.94
2023-05-08T22:29:05.065Z,101946.78
2023-05-08T22:31:31.644Z,101948.88
2023-05-08T22:33:58.452Z,101944.63
2023-05-08T22:36:24.953Z,101939.31
2023-05-08T22:38:51.709Z,101940.28
2023-05-08T22:41:18.239Z,101945.22
2023-05-08T22:43:44.805Z,101931.97
2023-05-08T22:46:11.888Z,101931.47
2023-05-08T22:48:38.665Z,101928.09
2023-05-08T22:51:05.289Z,101916.34
2023-05-08T22:53:31.785Z,101913.50
2023-05-08T22:55:58.189Z,101905.84
2023-05-08T22:58:25.249Z,101904.31
2023-05-08T23:00:51.945Z,101895.09
2023-05-08T23:03:18.615Z,101907.03
2023-05-08T23:05:45.048Z,101902.59
2023-05-08T23:08:11.492Z,101889.34
2023-05-08T23:10:37.957Z,101894.06
2023-05-08T23:13:04.507Z,101887.97
2023-05-08T23:15:30.975Z,101892.53
2023-05-08T23:17:57.512Z,101880.16
2023-05-08T23:20:24.117Z,101876.84
2023-05-08T23:22:50.530Z,101879.75
2023-05-08T23:25:17.216Z,101874.44
2023-05-08T23:27:43.860Z,101876.41
2023-05-08T23:30:13.134Z,101873.94
2023-05-08T23:32:39.973Z,101870.69
2023-05-08T23:35:07.094Z,101861.59
2023-05-08T23:37:33.661Z,101858.00
2023-05-08T23:40:00.166Z,101859.81
2023-05-08T23:42:27.207Z,101850.19
2023-05-08T23:44:53.798Z,101834.84
2023-05-08T23:47:22.372Z,101839.06
2023-05-08T23:49:49.010Z,101842.78
2023-05-08T23:52:15.486Z,101833.88
2023-05-08T23:54:42.188Z,101841.16
2023-05-08T23:57:08.714Z,101842.16
2023-05-08T23:59:35.320Z,101836.94
